Time;durP1;ratioP1;P1;durP2;ratioP2;P2;SDS_P1;SDS_P2;PMS_P1;PMS_P2;Temp;Humidity;BMP_temperature;BMP_pressure;BME280_temperature;BME280_humidity;BME280_pressure;Samples;Min_cycle;Max_cycle;Signal;HPM_P1;HPM_P2
2022/12/28 00:01:17;;;;;;;9.02;4.20;;;5.30;99.90;;;;;;4991067;28;20072;-84
2022/12/28 00:03:46;;;;;;;8.65;4.88;;;5.40;99.90;;;;;;4990499;28;20054;-87
2022/12/28 00:06:13;;;;;;;9.98;4.78;;;5.30;99.90;;;;;;4990263;28;20057;-86
2022/12/28 00:08:40;;;;;;;12.05;4.95;;;5.50;99.90;;;;;;5008818;28;20045;-83
2022/12/28 00:11:11;;;;;;;11.18;5.10;;;5.30;99.90;;;;;;4987337;28;20496;-85
2022/12/28 00:13:40;;;;;;;10.88;4.95;;;5.30;99.90;;;;;;4989410;28;20065;-84
2022/12/28 00:16:08;;;;;;;8.55;4.72;;;5.40;99.90;;;;;;4990403;28;20053;-86
2022/12/28 00:18:37;;;;;;;10.68;4.95;;;5.30;99.90;;;;;;4992972;28;20053;-86
2022/12/28 00:21:04;;;;;;;12.73;4.45;;;5.40;99.90;;;;;;5004907;28;20053;-84
2022/12/28 00:23:35;;;;;;;10.32;5.95;;;5.40;99.90;;;;;;4995432;28;20041;-86
2022/12/28 00:26:11;;;;;;;9.15;4.63;;;5.50;99.90;;;;;;5009339;28;20053;-85
2022/12/28 00:28:38;;;;;;;;;;;5.50;99.90;;;;;;4992748;28;20050;-84
2022/12/28 00:31:07;;;;;;;9.93;4.38;;;5.30;99.90;;;;;;4989826;28;19976;-85
2022/12/28 00:33:35;;;;;;;12.75;5.63;;;4.90;99.90;;;;;;4993484;28;20427;-84
2022/12/28 00:36:02;;;;;;;12.27;5.10;;;5.60;99.90;;;;;;4995133;28;20038;-85
2022/12/28 00:38:30;;;;;;;10.32;4.70;;;6.90;99.90;;;;;;4996481;28;20055;-84
2022/12/28 00:40:57;;;;;;;13.10;5.07;;;5.30;99.90;;;;;;4995183;28;20140;-84
2022/12/28 00:43:26;;;;;;;13.43;5.50;;;5.30;99.90;;;;;;4997695;28;20479;-84
2022/12/28 00:45:52;;;;;;;9.50;4.97;;;5.30;99.90;;;;;;4998297;28;20119;-85
2022/12/28 00:48:18;;;;;;;10.88;5.07;;;5.30;99.90;;;;;;5011988;28;20952;-85
2022/12/28 00:50:47;;;;;;;11.98;6.00;;;5.40;99.90;;;;;;4997555;28;20037;-84
2022/12/28 00:53:16;;;;;;;10.80;5.18;;;5.50;99.90;;;;;;4995458;28;20136;-85
2022/12/28 00:55:56;;;;;;;10.57;5.60;;;5.40;99.90;;;;;;5010587;28;20092;-86
2022/12/28 00:58:25;;;;;;;8.25;5.03;;;5.40;99.90;;;;;;4997463;28;20496;-84
2022/12/28 01:00:50;;;;;;;14.10;5.40;;;5.40;99.90;;;;;;4999124;28;20346;-85
2022/12/28 01:03:16;;;;;;;10.55;5.38;;;5.40;99.90;;;;;;4995482;28;20120;-85
2022/12/28 01:05:48;;;;;;;11.02;6.00;;;5.40;99.90;;;;;;4983303;28;20053;-83
2022/12/28 01:08:22;;;;;;;13.35;6.28;;;5.30;99.90;;;;;;5011012;28;20041;-86
2022/12/28 01:10:47;;;;;;;13.32;5.57;;;5.40;99.90;;;;;;4979441;28;20046;-85
2022/12/28 01:13:16;;;;;;;9.23;5.35;;;4.10;99.90;;;;;;5010644;28;20124;-85
2022/12/28 01:15:41;;;;;;;12.85;5.90;;;5.40;99.90;;;;;;4963638;28;20710;-83
2022/12/28 01:18:07;;;;;;;10.98;5.93;;;5.60;99.90;;;;;;4994323;28;20565;-84
2022/12/28 01:20:36;;;;;;;9.57;5.97;;;5.40;99.90;;;;;;4999198;28;20044;-84
2022/12/28 01:23:04;;;;;;;11.95;5.90;;;5.40;99.90;;;;;;4992024;28;20125;-85
2022/12/28 01:25:33;;;;;;;13.10;5.57;;;5.50;99.90;;;;;;4980259;28;20088;-84
2022/12/28 01:27:59;;;;;;;11.90;6.03;;;5.40;99.90;;;;;;5011284;28;20045;-84
2022/12/28 01:30:24;;;;;;;11.60;6.18;;;5.40;99.90;;;;;;5013604;28;20045;-83
2022/12/28 01:32:53;;;;;;;10.05;6.60;;;5.40;99.90;;;;;;4992656;28;20056;-84
2022/12/28 01:35:19;;;;;;;13.35;6.55;;;5.40;99.90;;;;;;4998684;28;20049;-84
2022/12/28 01:37:44;;;;;;;13.55;6.55;;;5.40;99.90;;;;;;4995688;28;20439;-86
2022/12/28 01:40:24;;;;;;;9.90;6.35;;;5.50;99.90;;;;;;4981651;28;20048;-85
2022/12/28 01:42:50;;;;;;;12.73;7.15;;;5.60;99.90;;;;;;4992228;28;20466;-84
2022/12/28 01:45:19;;;;;;;15.88;7.88;;;5.50;99.90;;;;;;4980412;28;20045;-85
2022/12/28 01:47:48;;;;;;;13.90;7.20;;;5.50;99.90;;;;;;4991305;28;20076;-84
2022/12/28 01:50:18;;;;;;;12.57;7.75;;;5.40;99.90;;;;;;4991787;28;20042;-84
2022/12/28 01:52:58;;;;;;;14.00;7.90;;;5.50;99.90;;;;;;4994145;28;20041;-84
2022/12/28 01:55:36;;;;;;;12.07;7.15;;;5.60;99.90;;;;;;5013064;28;20053;-83
2022/12/28 01:58:08;;;;;;;11.75;7.57;;;5.80;99.90;;;;;;4994893;28;20060;-84
2022/12/28 02:00:34;;;;;;;16.02;7.85;;;5.60;99.90;;;;;;4990346;28;21125;-86
2022/12/28 02:03:10;;;;;;;15.50;7.88;;;5.50;99.90;;;;;;4994130;28;20038;-85
2022/12/28 02:05:43;;;;;;;12.13;7.20;;;5.60;99.90;;;;;;5008477;28;20046;-86
2022/12/28 02:08:23;;;;;;;14.35;7.97;;;5.50;99.90;;;;;;5023552;28;20049;-85
2022/12/28 02:10:51;;;;;;;15.07;8.20;;;5.60;99.90;;;;;;4980505;28;20058;-85
2022/12/28 02:13:18;;;;;;;13.63;8.02;;;5.80;99.90;;;;;;5001540;28;20231;-85
2022/12/28 02:15:48;;;;;;;15.60;7.80;;;5.60;99.90;;;;;;4998662;28;20060;-85
2022/12/28 02:18:19;;;;;;;13.38;7.78;;;5.60;99.90;;;;;;4998159;28;20054;-85
2022/12/28 02:20:59;;;;;;;14.10;9.32;;;4.20;99.90;;;;;;4997983;28;20045;-84
2022/12/28 02:23:51;;;;;;;14.88;8.88;;;5.70;99.90;;;;;;5009978;28;20046;-86
2022/12/28 02:26:36;;;;;;;14.02;8.35;;;5.60;99.90;;;;;;4994424;28;20053;-84
2022/12/28 02:29:27;;;;;;;11.68;8.30;;;5.60;99.90;;;;;;5006222;28;20168;-87
2022/12/28 02:32:19;;;;;;;17.60;9.00;;;5.60;99.90;;;;;;5008948;28;20057;-85
2022/12/28 02:35:15;;;;;;;15.15;8.70;;;5.90;99.90;;;;;;4991691;28;20771;-87
2022/12/28 02:37:47;;;;;;;14.80;8.50;;;5.70;99.90;;;;;;5008340;28;20064;-84
2022/12/28 02:40:18;;;;;;;15.25;9.07;;;5.60;99.90;;;;;;4988288;28;20061;-86
2022/12/28 02:42:48;;;;;;;15.68;8.82;;;5.60;99.90;;;;;;4982554;28;20407;-86
2022/12/28 02:51:11;;;;;;;13.80;9.27;;;5.70;99.90;;;;;;5007047;28;20050;-86
2022/12/28 02:54:00;;;;;;;17.13;9.20;;;5.70;99.90;;;;;;4990812;28;20072;-86
2022/12/28 02:56:55;;;;;;;14.70;9.27;;;5.70;99.90;;;;;;4988091;28;20614;-85
2022/12/28 02:59:41;;;;;;;19.02;9.93;;;5.80;99.90;;;;;;4990295;28;20495;-85
2022/12/28 03:02:12;;;;;;;16.80;8.98;;;5.90;99.90;;;;;;4990934;28;20379;-84
2022/12/28 03:04:57;;;;;;;14.85;9.18;;;5.90;99.90;;;;;;5008747;28;20447;-85
2022/12/28 03:10:44;;;;;;;13.70;9.05;;;5.70;99.90;;;;;;5011110;28;20227;-85
2022/12/28 03:13:49;;;;;;;14.20;9.15;;;6.00;99.90;;;;;;4990268;28;20084;-85
2022/12/28 03:31:05;;;;;;;14.95;8.40;;;6.10;99.90;;;;;;5010536;28;20060;-85
2022/12/28 03:34:07;;;;;;;12.50;9.00;;;6.70;99.90;;;;;;4987185;28;20046;-86
2022/12/28 03:37:01;;;;;;;16.77;9.70;;;6.10;99.90;;;;;;4990608;28;20513;-86
2022/12/28 03:39:33;;;;;;;14.50;9.05;;;6.30;99.90;;;;;;5009266;28;20045;-85
2022/12/28 03:44:58;;;;;;;12.57;8.52;;;6.30;99.90;;;;;;5006130;28;20057;-86
2022/12/28 03:47:25;;;;;;;12.13;8.93;;;6.20;99.90;;;;;;4988186;28;20057;-85
2022/12/28 03:49:58;;;;;;;15.10;8.65;;;6.40;99.90;;;;;;4991767;28;20050;-86
2022/12/28 03:52:25;;;;;;;17.15;8.70;;;6.50;99.90;;;;;;4991376;28;20057;-86
2022/12/28 03:54:54;;;;;;;12.25;8.27;;;6.30;99.90;;;;;;4991128;28;20499;-86
2022/12/28 03:57:22;;;;;;;13.80;8.23;;;6.40;99.90;;;;;;4977437;28;20046;-85
2022/12/28 03:59:48;;;;;;;14.23;7.45;;;6.50;99.90;;;;;;4991053;28;20542;-83
2022/12/28 04:02:19;;;;;;;15.13;8.02;;;6.10;99.90;;;;;;4992311;28;20050;-85
2022/12/28 04:04:48;;;;;;;15.57;7.25;;;6.50;99.90;;;;;;4973778;28;20045;-87
2022/12/28 04:07:21;;;;;;;17.30;7.38;;;6.50;99.90;;;;;;5007984;28;20575;-85
2022/12/28 04:09:54;;;;;;;12.52;6.80;;;6.50;99.90;;;;;;4998843;28;20468;-86
2022/12/28 04:12:20;;;;;;;12.95;6.43;;;6.50;99.90;;;;;;5014436;28;20049;-87
2022/12/28 04:14:46;;;;;;;12.00;6.65;;;6.60;99.90;;;;;;4978012;28;20049;-85
2022/12/28 04:17:34;;;;;;;13.23;6.50;;;6.60;99.90;;;;;;4988852;28;20049;-86
2022/12/28 04:20:05;;;;;;;16.20;6.90;;;6.50;99.90;;;;;;4994693;28;20050;-87
2022/12/28 04:22:40;;;;;;;18.52;6.35;;;5.90;99.90;;;;;;5006569;28;20048;-85
2022/12/28 04:25:07;;;;;;;17.63;6.57;;;6.80;99.90;;;;;;4971899;28;20049;-85
2022/12/28 04:27:38;;;;;;;15.68;6.38;;;6.60;99.90;;;;;;4993483;28;20084;-87
2022/12/28 04:30:07;;;;;;;15.93;6.68;;;5.70;99.90;;;;;;4974568;28;20305;-85
2022/12/28 04:32:33;;;;;;;11.45;6.25;;;6.70;99.90;;;;;;5006077;28;20144;-84
2022/12/28 04:34:59;;;;;;;21.77;6.68;;;6.80;99.90;;;;;;4996417;28;20095;-85
2022/12/28 04:37:27;;;;;;;19.70;7.13;;;6.80;99.90;;;;;;4992684;28;20046;-87
2022/12/28 04:39:56;;;;;;;23.33;6.70;;;6.80;99.90;;;;;;4990813;28;20050;-88
2022/12/28 04:42:25;;;;;;;14.93;6.75;;;7.10;99.90;;;;;;4994630;28;20124;-85
2022/12/28 04:44:51;;;;;;;17.45;6.18;;;6.90;99.90;;;;;;4992633;28;20045;-84
2022/12/28 04:47:20;;;;;;;19.40;6.28;;;6.60;99.90;;;;;;4995340;28;20053;-86
2022/12/28 04:49:50;;;;;;;15.00;5.50;;;7.00;99.90;;;;;;5012234;28;20042;-88
2022/12/28 04:52:21;;;;;;;14.70;5.07;;;7.00;99.90;;;;;;4989540;28;20058;-86
2022/12/28 04:54:50;;;;;;;15.68;5.63;;;7.00;99.90;;;;;;5008266;28;20050;-90
2022/12/28 04:57:21;;;;;;;14.27;4.82;;;7.10;99.90;;;;;;4984844;28;20077;-87
2022/12/28 04:59:50;;;;;;;14.90;4.55;;;7.20;99.90;;;;;;4977289;28;20126;-88
2022/12/28 05:02:21;;;;;;;16.33;6.28;;;7.30;99.90;;;;;;4995908;28;20042;-85
2022/12/28 05:04:52;;;;;;;11.45;5.03;;;7.20;99.90;;;;;;4973126;28;20033;-87
2022/12/28 05:07:20;;;;;;;8.63;5.00;;;8.00;99.90;;;;;;4992505;28;20049;-85
2022/12/28 05:09:52;;;;;;;13.07;4.80;;;5.80;99.90;;;;;;4995372;28;20050;-86
2022/12/28 05:12:19;;;;;;;13.35;5.72;;;7.10;99.90;;;;;;4993988;28;20123;-87
2022/12/28 05:14:45;;;;;;;15.93;4.90;;;6.90;99.90;;;;;;5005666;28;20069;-84
2022/12/28 05:17:14;;;;;;;21.60;5.57;;;8.40;99.90;;;;;;4989707;28;20078;-85
2022/12/28 05:19:49;;;;;;;16.23;5.32;;;7.10;99.90;;;;;;4973634;28;20050;-86
2022/12/28 05:22:16;;;;;;;13.52;4.78;;;8.70;99.90;;;;;;4979209;28;20112;-85
2022/12/28 05:24:44;;;;;;;11.85;4.95;;;7.30;99.90;;;;;;4995009;28;20399;-86
2022/12/28 05:27:16;;;;;;;11.32;4.57;;;7.40;99.90;;;;;;4992647;28;20049;-87
2022/12/28 05:29:44;;;;;;;7.38;3.45;;;;;;;;;;4991990;28;20038;-86
2022/12/28 05:32:15;;;;;;;11.60;3.97;;;7.30;99.90;;;;;;5010717;28;20121;-85
2022/12/28 05:34:41;;;;;;;11.05;3.75;;;7.40;99.90;;;;;;5003295;28;20560;-86
2022/12/28 05:37:09;;;;;;;9.85;3.65;;;7.50;99.90;;;;;;4992036;28;20053;-86
2022/12/28 05:39:38;;;;;;;12.98;3.65;;;7.50;99.90;;;;;;4989938;28;20072;-85
2022/12/28 05:42:06;;;;;;;9.65;3.63;;;7.40;99.90;;;;;;5012098;28;20498;-85
2022/12/28 05:44:37;;;;;;;10.13;3.03;;;7.60;99.90;;;;;;4978672;28;20037;-85
2022/12/28 05:47:16;;;;;;;9.18;3.22;;;7.50;99.90;;;;;;4993019;28;20045;-85
2022/12/28 05:49:47;;;;;;;6.55;3.10;;;7.40;99.90;;;;;;4991720;28;20057;-85
2022/12/28 05:52:12;;;;;;;7.75;3.45;;;7.50;99.90;;;;;;4973330;28;20056;-85
2022/12/28 05:54:41;;;;;;;9.32;2.85;;;7.50;99.90;;;;;;4994084;28;20053;-85
2022/12/28 05:57:07;;;;;;;8.23;3.22;;;7.60;99.90;;;;;;4989165;28;20089;-86
2022/12/28 05:59:33;;;;;;;11.27;3.58;;;7.60;99.90;;;;;;5005451;28;20259;-87
2022/12/28 06:02:01;;;;;;;8.13;3.03;;;7.50;99.90;;;;;;4987923;28;20139;-87
2022/12/28 06:04:29;;;;;;;9.50;3.38;;;9.00;99.90;;;;;;5010595;28;20136;-86
2022/12/28 06:06:55;;;;;;;11.55;3.65;;;7.60;99.90;;;;;;4989945;28;20061;-88
2022/12/28 06:09:21;;;;;;;13.20;3.28;;;7.80;99.90;;;;;;4991730;28;20640;-86
2022/12/28 06:11:47;;;;;;;7.80;2.95;;;7.60;99.90;;;;;;5003310;28;20053;-84
2022/12/28 06:14:23;;;;;;;13.30;3.90;;;7.50;99.90;;;;;;4990153;28;20049;-84
2022/12/28 06:16:51;;;;;;;;;;;6.40;99.90;;;;;;4992016;28;20080;-85
2022/12/28 06:19:17;;;;;;;12.90;3.22;;;8.30;99.90;;;;;;5007318;28;19921;-85
2022/12/28 06:21:47;;;;;;;10.75;3.20;;;7.60;99.90;;;;;;5008437;28;20049;-85
2022/12/28 06:24:17;;;;;;;11.23;3.20;;;7.50;99.90;;;;;;4991005;28;20629;-86
2022/12/28 06:27:01;;;;;;;9.57;3.42;;;7.70;99.90;;;;;;4991555;28;20048;-85
2022/12/28 06:29:27;;;;;;;14.18;3.75;;;7.60;99.90;;;;;;4992259;28;20518;-86
2022/12/28 06:32:02;;;;;;;11.70;3.40;;;7.60;99.90;;;;;;4988710;28;20072;-84
2022/12/28 06:34:28;;;;;;;12.55;4.07;;;7.50;99.90;;;;;;4969733;28;20567;-84
2022/12/28 06:36:59;;;;;;;13.07;3.80;;;7.60;99.90;;;;;;4975250;28;20054;-85
2022/12/28 06:39:32;;;;;;;10.23;3.28;;;6.80;99.90;;;;;;4972265;28;20140;-86
2022/12/28 06:42:04;;;;;;;17.10;4.00;;;7.70;99.90;;;;;;4988295;28;20054;-88
2022/12/28 06:44:30;;;;;;;19.55;4.25;;;7.60;99.90;;;;;;4989735;28;20040;-86
2022/12/28 06:46:58;;;;;;;22.25;4.97;;;6.90;99.90;;;;;;5008862;28;20411;-85
2022/12/28 06:49:24;;;;;;;21.75;4.85;;;7.90;99.90;;;;;;4988956;28;20633;-84
2022/12/28 06:51:54;;;;;;;21.48;4.95;;;7.70;99.90;;;;;;5005566;28;20064;-84
2022/12/28 06:54:20;;;;;;;25.60;5.47;;;6.60;99.90;;;;;;4989535;28;20153;-86
2022/12/28 06:56:57;;;;;;;23.88;4.32;;;7.70;99.90;;;;;;5007870;28;20050;-85
2022/12/28 06:59:24;;;;;;;28.02;5.13;;;7.60;99.90;;;;;;5008296;28;20049;-85
2022/12/28 07:01:49;;;;;;;28.15;5.53;;;7.80;99.90;;;;;;5007267;28;20050;-85
2022/12/28 07:04:15;;;;;;;23.77;4.63;;;7.80;99.90;;;;;;4972189;28;20475;-85
2022/12/28 07:06:46;;;;;;;22.20;4.38;;;7.70;99.90;;;;;;5003333;28;20089;-85
2022/12/28 07:09:19;;;;;;;24.48;4.15;;;7.60;99.90;;;;;;4995076;28;20041;-84
2022/12/28 07:11:52;;;;;;;23.17;5.28;;;7.80;99.90;;;;;;4993811;28;20065;-87
2022/12/28 07:14:18;;;;;;;28.30;5.53;;;7.80;99.90;;;;;;5006290;28;20054;-84
2022/12/28 07:16:44;;;;;;;26.67;5.50;;;7.70;99.90;;;;;;5015960;28;20176;-84
2022/12/28 07:19:10;;;;;;;25.45;5.13;;;7.70;99.90;;;;;;5009345;28;20049;-83
2022/12/28 07:21:38;;;;;;;28.33;5.68;;;7.70;99.90;;;;;;5011468;28;20056;-83
2022/12/28 07:24:06;;;;;;;21.00;4.43;;;7.70;99.90;;;;;;4996492;28;20126;-84
2022/12/28 07:26:38;;;;;;;23.73;4.88;;;7.10;99.90;;;;;;4994332;28;20052;-85
2022/12/28 07:29:06;;;;;;;25.02;5.25;;;6.80;99.90;;;;;;4991518;28;20069;-85
2022/12/28 07:31:41;;;;;;;23.90;4.82;;;7.60;99.90;;;;;;4993705;28;20053;-86
2022/12/28 07:34:12;;;;;;;19.45;5.07;;;7.60;99.90;;;;;;4994655;28;20054;-85
2022/12/28 07:36:38;;;;;;;19.95;5.63;;;7.80;99.90;;;;;;5014133;28;20044;-84
2022/12/28 07:39:06;;;;;;;21.17;4.90;;;7.70;99.90;;;;;;5011999;28;20412;-84
2022/12/28 07:41:36;;;;;;;18.10;4.55;;;6.80;99.90;;;;;;4981519;28;20057;-85
2022/12/28 07:44:04;;;;;;;18.58;4.70;;;7.70;99.90;;;;;;5012284;28;20564;-84
2022/12/28 07:46:33;;;;;;;16.63;4.43;;;7.70;99.90;;;;;;4974525;28;20061;-84
2022/12/28 07:48:59;;;;;;;14.68;4.18;;;7.70;99.90;;;;;;4994151;28;20043;-84
2022/12/28 07:51:29;;;;;;;22.40;4.53;;;7.70;99.90;;;;;;4974965;28;20384;-84
2022/12/28 07:53:59;;;;;;;14.20;4.65;;;7.90;99.90;;;;;;4976591;28;20050;-83
2022/12/28 07:56:26;;;;;;;19.05;4.93;;;7.90;99.90;;;;;;5013979;28;20046;-84
2022/12/28 07:58:55;;;;;;;17.38;4.60;;;7.80;99.90;;;;;;4982630;28;20084;-84
2022/12/28 08:01:25;;;;;;;21.58;4.70;;;7.70;99.90;;;;;;4998056;28;20046;-84
2022/12/28 08:03:59;;;;;;;10.65;3.15;;;8.80;99.90;;;;;;5010658;28;20129;-84
2022/12/28 08:06:26;;;;;;;12.57;2.70;;;7.60;99.90;;;;;;4997782;28;20045;-85
2022/12/28 08:08:55;;;;;;;13.02;3.17;;;7.60;99.90;;;;;;4995949;28;20049;-85
2022/12/28 08:11:23;;;;;;;11.55;3.10;;;7.80;99.90;;;;;;4994906;28;20085;-83
2022/12/28 08:13:51;;;;;;;12.13;3.30;;;7.80;99.90;;;;;;4998980;28;20061;-85
2022/12/28 08:16:21;;;;;;;10.90;2.38;;;8.00;99.90;;;;;;4996304;28;20046;-83
2022/12/28 08:18:50;;;;;;;17.20;2.40;;;7.90;99.90;;;;;;5013168;28;20057;-85
2022/12/28 08:21:23;;;;;;;18.33;3.03;;;7.70;99.90;;;;;;5012936;28;20068;-84
2022/12/28 08:23:49;;;;;;;8.55;1.92;;;7.90;99.90;;;;;;4993121;28;20498;-84
2022/12/28 08:26:27;;;;;;;7.38;1.80;;;7.80;99.90;;;;;;5011099;28;20061;-83
2022/12/28 08:29:00;;;;;;;6.43;2.35;;;7.80;99.90;;;;;;4995858;28;20056;-84
2022/12/28 08:31:43;;;;;;;9.43;2.03;;;7.80;99.90;;;;;;5005818;28;20050;-84
2022/12/28 08:34:13;;;;;;;7.95;2.42;;;7.80;99.90;;;;;;4994252;28;20034;-82
2022/12/28 08:36:39;;;;;;;8.85;2.08;;;7.70;99.90;;;;;;4991484;28;20050;-83
2022/12/28 08:39:05;;;;;;;9.18;2.40;;;7.70;99.90;;;;;;5008953;28;20476;-82
2022/12/28 08:41:31;;;;;;;8.27;2.13;;;7.70;99.90;;;;;;4993684;28;20099;-85
2022/12/28 08:43:57;;;;;;;7.43;2.15;;;7.80;99.90;;;;;;4991832;28;20037;-83
2022/12/28 08:46:33;;;;;;;6.03;2.50;;;7.70;99.90;;;;;;4989778;28;20109;-84
2022/12/28 08:49:05;;;;;;;7.88;2.42;;;7.70;99.90;;;;;;4996278;28;20045;-85
2022/12/28 08:51:40;;;;;;;8.30;2.67;;;7.70;99.90;;;;;;4996612;28;20534;-84
2022/12/28 08:54:07;;;;;;;4.50;2.60;;;7.60;99.90;;;;;;5009798;28;20049;-84
2022/12/28 08:56:37;;;;;;;7.75;2.15;;;7.70;99.90;;;;;;4998823;28;20045;-84
2022/12/28 08:59:06;;;;;;;8.75;2.30;;;8.00;99.90;;;;;;4998594;28;20052;-85
2022/12/28 09:01:41;;;;;;;8.82;2.58;;;7.50;99.90;;;;;;4999324;28;20053;-84
2022/12/28 09:04:12;;;;;;;7.03;2.35;;;8.00;99.90;;;;;;4981062;28;20046;-83
2022/12/28 09:06:41;;;;;;;10.75;3.03;;;8.10;99.90;;;;;;4999521;28;20056;-84
2022/12/28 09:09:13;;;;;;;10.13;4.00;;;8.00;99.90;;;;;;4994289;28;20077;-84
2022/12/28 09:11:42;;;;;;;12.25;4.10;;;8.10;99.90;;;;;;4996897;28;20054;-84
2022/12/28 09:14:10;;;;;;;15.73;4.65;;;8.10;99.90;;;;;;4998490;28;20057;-84
2022/12/28 09:16:40;;;;;;;13.50;4.13;;;8.00;99.90;;;;;;4999634;28;20073;-84
2022/12/28 09:19:13;;;;;;;9.45;4.43;;;8.00;99.90;;;;;;5017628;28;20786;-83
2022/12/28 09:21:39;;;;;;;11.90;4.13;;;7.30;99.90;;;;;;4996357;28;20228;-85
2022/12/28 09:24:14;;;;;;;12.10;3.75;;;8.00;99.90;;;;;;4996703;28;20038;-84
2022/12/28 09:26:40;;;;;;;7.60;3.10;;;7.80;99.90;;;;;;5000366;28;20540;-84
2022/12/28 09:29:10;;;;;;;9.00;2.80;;;7.90;99.90;;;;;;4991456;28;20136;-85
2022/12/28 09:31:39;;;;;;;8.10;2.35;;;7.90;99.90;;;;;;5015748;28;20042;-85
2022/12/28 09:34:10;;;;;;;6.20;2.30;;;7.90;99.90;;;;;;4998111;28;20061;-86
2022/12/28 09:36:44;;;;;;;6.35;2.38;;;8.00;99.90;;;;;;4990846;28;20046;-85
2022/12/28 09:39:23;;;;;;;8.02;2.42;;;7.90;99.90;;;;;;5000130;28;20494;-85
2022/12/28 09:42:07;;;;;;;9.38;2.05;;;8.10;99.90;;;;;;4992374;28;20049;-85
2022/12/28 09:45:07;;;;;;;8.80;1.95;;;7.80;99.90;;;;;;4997748;28;20054;-86
2022/12/28 09:47:49;;;;;;;4.95;1.55;;;7.80;99.90;;;;;;4995408;28;20131;-86
2022/12/28 09:50:15;;;;;;;7.53;1.98;;;7.90;99.90;;;;;;5010336;28;20049;-86
2022/12/28 09:53:19;;;;;;;5.10;1.83;;;6.90;99.90;;;;;;4997002;28;20300;-86
2022/12/28 09:56:01;;;;;;;5.45;2.00;;;7.90;99.90;;;;;;4994382;28;20488;-85
2022/12/28 09:58:35;;;;;;;4.20;2.13;;;8.00;99.90;;;;;;5010179;28;20398;-85
2022/12/28 10:01:02;;;;;;;5.28;2.33;;;8.20;99.90;;;;;;4994877;28;20381;-85
2022/12/28 10:03:36;;;;;;;6.85;2.53;;;8.00;99.90;;;;;;4994256;28;20045;-85
2022/12/28 10:06:09;;;;;;;6.72;2.53;;;7.90;99.90;;;;;;4996395;28;20124;-84
2022/12/28 10:08:40;;;;;;;7.18;2.67;;;7.80;99.90;;;;;;5012057;28;20089;-84
2022/12/28 10:11:09;;;;;;;7.43;3.20;;;7.90;99.90;;;;;;5015120;28;20042;-84
2022/12/28 10:13:40;;;;;;;7.68;3.08;;;7.80;99.90;;;;;;5001502;28;20124;-86
2022/12/28 10:16:16;;;;;;;7.05;3.00;;;7.90;99.90;;;;;;4997707;28;20046;-85
2022/12/28 10:18:42;;;;;;;6.88;2.75;;;7.70;99.90;;;;;;4997915;28;20042;-84
2022/12/28 10:21:13;;;;;;;9.02;2.85;;;7.80;99.90;;;;;;5014936;28;20056;-85
2022/12/28 10:23:44;;;;;;;7.30;3.17;;;7.90;99.90;;;;;;4994062;28;20585;-85
2022/12/28 10:26:18;;;;;;;5.15;3.30;;;7.80;99.90;;;;;;5013765;28;20049;-85
2022/12/28 10:28:54;;;;;;;4.95;3.00;;;7.80;99.90;;;;;;4997053;28;20042;-85
2022/12/28 10:31:35;;;;;;;5.97;3.30;;;7.80;99.90;;;;;;4994069;28;20063;-85
2022/12/28 10:34:21;;;;;;;5.45;3.33;;;6.90;99.90;;;;;;5012362;28;20136;-84
2022/12/28 10:37:02;;;;;;;9.38;3.63;;;7.80;99.90;;;;;;4991157;28;20153;-84
2022/12/28 10:39:36;;;;;;;11.90;4.55;;;7.90;99.90;;;;;;4994176;28;20065;-85
2022/12/28 10:42:03;;;;;;;12.82;5.78;;;7.80;99.90;;;;;;4977705;28;20246;-85
2022/12/28 10:44:34;;;;;;;14.85;6.00;;;7.80;99.90;;;;;;4992976;28;20076;-86
2022/12/28 10:47:03;;;;;;;16.20;6.40;;;7.20;99.90;;;;;;4988377;28;20054;-85
2022/12/28 10:49:34;;;;;;;17.20;6.05;;;8.00;99.90;;;;;;4989859;28;20053;-86
2022/12/28 10:52:16;;;;;;;16.77;6.75;;;7.90;99.90;;;;;;4992808;28;20065;-85
2022/12/28 10:54:48;;;;;;;16.95;6.30;;;8.00;99.90;;;;;;5023854;28;20048;-84
2022/12/28 10:58:01;;;;;;;16.27;6.47;;;8.00;99.90;;;;;;5009138;28;20440;-88
2022/12/28 11:03:41;;;;;;;;;;;;;;;;;;;;;
2022/12/28 11:06:08;;;;;;;13.38;5.50;;;;;;;;;;5013373;28;20050;-88
2022/12/28 11:09:24;;;;;;;14.25;5.75;;;8.00;99.90;;;;;;4982013;28;20061;-87
2022/12/28 11:12:32;;;;;;;14.45;5.85;;;8.10;99.90;;;;;;5005433;28;20065;-87
2022/12/28 11:15:11;;;;;;;;;;;;;;;;;;;;;
2022/12/28 11:17:50;;;;;;;13.55;6.15;;;8.10;99.90;;;;;;5001382;28;20046;-88
2022/12/28 11:20:23;;;;;;;18.60;5.55;;;8.10;99.90;;;;;;4991698;28;20587;-85
2022/12/28 11:23:00;;;;;;;18.92;5.95;;;8.10;99.90;;;;;;4999332;28;20053;-85
2022/12/28 11:25:34;;;;;;;16.08;5.47;;;8.10;99.90;;;;;;5012984;28;20049;-85
2022/12/28 11:28:08;;;;;;;14.93;5.32;;;8.00;99.90;;;;;;4993232;28;20060;-84
2022/12/28 11:30:33;;;;;;;14.93;5.00;;;8.00;99.90;;;;;;4992945;28;20053;-85
2022/12/28 11:33:08;;;;;;;19.67;5.75;;;8.00;99.90;;;;;;5008356;28;20072;-85
2022/12/28 11:35:39;;;;;;;13.90;5.03;;;8.00;99.90;;;;;;4994723;28;20092;-86
2022/12/28 11:38:26;;;;;;;14.88;4.97;;;8.10;99.90;;;;;;5005897;28;20061;-85
2022/12/28 11:40:53;;;;;;;16.33;5.03;;;;;;;;;;5005946;28;20042;-85
2022/12/28 11:43:27;;;;;;;12.75;5.10;;;8.10;99.90;;;;;;4989256;28;20045;-83
2022/12/28 11:46:03;;;;;;;10.00;4.97;;;8.10;99.90;;;;;;5005313;28;20050;-82
2022/12/28 11:48:41;;;;;;;11.07;4.40;;;8.00;99.90;;;;;;4974540;28;20475;-83
2022/12/28 11:51:19;;;;;;;15.50;4.88;;;8.00;99.90;;;;;;4989273;28;20076;-82
2022/12/28 11:53:45;;;;;;;10.25;4.68;;;7.80;99.90;;;;;;4992217;28;20050;-83
2022/12/28 11:56:12;;;;;;;16.02;4.57;;;8.00;99.90;;;;;;5007387;28;20046;-84
2022/12/28 11:58:41;;;;;;;11.02;4.45;;;8.00;99.90;;;;;;4970674;28;20045;-85
2022/12/28 12:01:32;;;;;;;12.35;4.40;;;8.00;99.90;;;;;;5006220;28;20092;-83
2022/12/28 12:03:58;;;;;;;13.68;4.57;;;8.00;99.90;;;;;;4993035;28;20058;-82
2022/12/28 12:06:44;;;;;;;12.13;4.15;;;8.00;99.90;;;;;;4992277;28;20049;-83
2022/12/28 12:09:31;;;;;;;10.82;4.15;;;8.00;99.90;;;;;;4942154;28;20415;-83
2022/12/28 12:12:00;;;;;;;7.63;3.40;;;6.80;99.90;;;;;;4987334;28;20129;-84
2022/12/28 12:14:30;;;;;;;8.10;3.55;;;8.00;99.90;;;;;;4988498;28;20057;-83
2022/12/28 12:17:04;;;;;;;10.90;3.42;;;8.00;99.90;;;;;;4989166;28;20545;-83
2022/12/28 12:19:34;;;;;;;6.15;3.25;;;8.20;99.90;;;;;;4989356;28;20486;-84
2022/12/28 12:22:09;;;;;;;7.78;2.70;;;8.10;99.90;;;;;;4990334;28;20054;-83
2022/12/28 12:24:57;;;;;;;5.78;2.50;;;8.00;99.90;;;;;;4989433;28;20041;-83
2022/12/28 12:27:35;;;;;;;5.43;2.20;;;8.10;99.90;;;;;;4988046;28;20056;-83
2022/12/28 12:30:16;;;;;;;3.53;2.10;;;7.00;99.90;;;;;;4988592;28;20784;-83
2022/12/28 12:33:11;;;;;;;7.75;2.10;;;8.10;99.90;;;;;;5008123;28;20041;-84
2022/12/28 12:35:56;;;;;;;5.43;2.50;;;8.40;99.90;;;;;;4991791;28;20059;-84
2022/12/28 12:38:43;;;;;;;8.50;2.72;;;8.10;99.90;;;;;;4994043;28;20046;-83
2022/12/28 12:41:48;;;;;;;6.28;2.47;;;8.10;99.90;;;;;;4999139;28;20045;-83
2022/12/28 12:44:36;;;;;;;6.00;2.80;;;8.00;99.90;;;;;;4994799;28;20532;-81
2022/12/28 12:47:32;;;;;;;7.32;2.78;;;8.00;99.90;;;;;;4992795;28;20064;-84
2022/12/28 12:50:35;;;;;;;4.67;2.57;;;8.00;99.90;;;;;;4925689;28;20055;-83
2022/12/28 12:53:32;;;;;;;4.95;2.72;;;8.10;99.90;;;;;;5006138;28;20053;-88
2022/12/28 12:56:28;;;;;;;5.63;2.55;;;8.10;99.90;;;;;;5010383;28;20056;-84
2022/12/28 12:59:29;;;;;;;6.18;2.72;;;8.00;99.90;;;;;;4996737;28;20491;-86
2022/12/28 13:02:10;;;;;;;7.00;2.60;;;8.10;99.90;;;;;;4921524;29;20044;-83
2022/12/28 13:04:41;;;;;;;7.78;2.50;;;8.00;99.90;;;;;;5004816;28;20435;-83
2022/12/28 13:07:24;;;;;;;5.50;2.35;;;8.20;99.90;;;;;;4990992;28;20148;-82
2022/12/28 13:09:53;;;;;;;7.07;2.50;;;8.00;99.90;;;;;;4993368;28;20128;-84
2022/12/28 13:12:20;;;;;;;6.43;2.60;;;8.00;99.90;;;;;;5009125;28;20672;-84
2022/12/28 13:14:49;;;;;;;8.60;2.33;;;7.90;99.90;;;;;;4999742;28;20119;-82
2022/12/28 13:17:20;;;;;;;8.80;2.55;;;8.00;99.90;;;;;;4994773;28;20046;-84
2022/12/28 13:19:46;;;;;;;9.30;2.20;;;8.00;99.90;;;;;;4998174;28;20460;-83
2022/12/28 13:22:48;;;;;;;7.10;2.30;;;8.00;99.90;;;;;;4981568;28;20072;-83
2022/12/28 13:25:34;;;;;;;6.93;2.03;;;6.80;99.90;;;;;;5002635;28;20064;-84
2022/12/28 13:28:02;;;;;;;7.07;2.00;;;8.00;99.90;;;;;;4993512;28;20139;-83
2022/12/28 13:30:31;;;;;;;9.30;2.08;;;7.90;99.90;;;;;;4932271;28;20508;-84
2022/12/28 13:33:06;;;;;;;8.15;2.28;;;8.00;99.90;;;;;;4950685;28;20156;-84
2022/12/28 13:35:38;;;;;;;8.50;2.35;;;7.90;99.90;;;;;;4969071;28;20050;-83
2022/12/28 13:38:35;;;;;;;;;;;;;;;;;;;;;
2022/12/28 13:41:02;;;;;;;7.25;1.98;;;7.80;99.90;;;;;;5012379;28;20061;-84
2022/12/28 13:44:10;;;;;;;8.18;2.08;;;7.90;99.90;;;;;;4992115;28;20439;-83
2022/12/28 13:46:42;;;;;;;6.82;2.10;;;7.80;99.90;;;;;;4993969;28;20458;-81
2022/12/28 13:49:09;;;;;;;9.90;2.53;;;7.90;99.90;;;;;;5008764;28;20117;-83
2022/12/28 13:51:38;;;;;;;11.57;2.95;;;8.00;99.90;;;;;;4974571;28;20038;-83
2022/12/28 13:54:05;;;;;;;9.18;2.60;;;7.90;99.90;;;;;;4992100;28;20495;-85
2022/12/28 13:56:37;;;;;;;9.02;2.72;;;7.90;99.90;;;;;;5002347;28;20046;-87